Time;durP1;ratioP1;P1;durP2;ratioP2;P2;SDS_P1;SDS_P2;PMS_P1;PMS_P2;Temp;Humidity;BMP_temperature;BMP_pressure;BME280_temperature;BME280_humidity;BME280_pressure;Samples;Min_cycle;Max_cycle;Signal;HPM_P1;HPM_P2
2023/05/24 00:01:36;;;;;;;12.40;2.97;;;8.90;86.20;;;;;;5016406;28;87810;-75
2023/05/24 00:04:02;;;;;;;12.60;2.20;;;8.80;86.50;;;;;;5017394;28;87723;-75
2023/05/24 00:06:28;;;;;;;12.75;2.30;;;8.80;86.30;;;;;;5017004;28;88335;-75
2023/05/24 00:08:54;;;;;;;11.52;2.10;;;8.80;87.30;;;;;;5012885;28;87471;-75
2023/05/24 00:11:21;;;;;;;13.07;2.55;;;8.70;86.50;;;;;;5012443;28;89807;-75
2023/05/24 00:13:47;;;;;;;9.50;2.42;;;8.70;87.10;;;;;;5012095;28;89565;-75
2023/05/24 00:16:13;;;;;;;16.15;2.28;;;8.70;87.60;;;;;;5012122;28;89018;-75
2023/05/24 00:18:39;;;;;;;14.27;2.45;;;8.70;88.80;;;;;;5014732;28;87544;-75
2023/05/24 00:21:09;;;;;;;9.95;2.17;;;8.60;88.80;;;;;;5015891;28;87777;-75
2023/05/24 00:23:38;;;;;;;13.65;2.67;;;8.60;88.90;;;;;;5014557;28;88624;-75
2023/05/24 00:26:04;;;;;;;18.67;2.97;;;8.60;88.70;;;;;;5015939;28;87607;-74
2023/05/24 00:28:30;;;;;;;17.20;3.55;;;8.50;88.00;;;;;;5015619;28;87569;-75
2023/05/24 00:30:56;;;;;;;11.23;2.80;;;8.50;89.80;;;;;;5016439;28;87460;-75
2023/05/24 00:33:22;;;;;;;13.93;2.55;;;8.50;89.20;;;;;;5015595;28;87960;-75
2023/05/24 00:35:53;;;;;;;18.92;2.50;;;8.40;89.10;;;;;;5015430;28;88453;-75
2023/05/24 00:38:19;;;;;;;11.55;2.45;;;8.40;89.00;;;;;;5015076;28;88458;-74
2023/05/24 00:40:44;;;;;;;12.82;2.60;;;8.40;89.50;;;;;;5013175;28;90478;-75
2023/05/24 00:43:10;;;;;;;20.88;2.67;;;8.30;89.50;;;;;;5015895;28;88898;-75
2023/05/24 00:45:35;;;;;;;15.57;2.72;;;8.30;90.20;;;;;;5014673;28;89581;-74
2023/05/24 00:48:03;;;;;;;12.15;2.30;;;8.30;90.00;;;;;;5014708;28;87506;-75
2023/05/24 00:50:28;;;;;;;14.43;2.70;;;8.30;90.10;;;;;;5015444;28;87515;-75
2023/05/24 00:52:58;;;;;;;17.92;2.60;;;8.20;90.30;;;;;;5014884;28;88166;-75
2023/05/24 00:55:24;;;;;;;16.17;2.55;;;8.20;90.20;;;;;;5014712;28;88450;-75
2023/05/24 00:57:51;;;;;;;10.82;2.72;;;8.20;90.40;;;;;;5013534;28;87650;-75
2023/05/24 01:00:17;;;;;;;12.00;2.00;;;8.10;90.60;;;;;;5014148;28;90620;-74
2023/05/24 01:02:43;;;;;;;17.52;2.97;;;8.10;90.40;;;;;;5013973;28;88739;-75
2023/05/24 01:05:12;;;;;;;10.85;2.42;;;8.10;90.60;;;;;;5012856;28;90991;-75
2023/05/24 01:08:03;;;;;;;16.15;2.60;;;8.10;90.70;;;;;;5013879;28;87475;-75
2023/05/24 01:10:53;;;;;;;12.95;3.03;;;8.00;90.60;;;;;;5015208;28;87569;-75
2023/05/24 01:13:37;;;;;;;13.07;2.45;;;8.00;90.40;;;;;;5014292;28;88558;-75
2023/05/24 01:16:20;;;;;;;14.82;2.55;;;8.00;90.40;;;;;;5016204;28;88594;-75
2023/05/24 01:19:04;;;;;;;15.17;2.70;;;7.90;90.50;;;;;;5015549;28;87678;-75
2023/05/24 01:22:00;;;;;;;12.90;2.55;;;7.90;90.70;;;;;;5015031;28;87350;-74
2023/05/24 01:24:41;;;;;;;16.23;2.65;;;7.90;90.60;;;;;;5013675;28;91552;-75
2023/05/24 01:27:08;;;;;;;9.52;2.38;;;7.80;90.70;;;;;;5014846;28;88290;-75
2023/05/24 01:29:35;;;;;;;9.20;2.45;;;7.80;91.00;;;;;;5015122;28;88410;-75
2023/05/24 01:32:02;;;;;;;12.85;2.65;;;7.70;91.30;;;;;;5015362;28;87184;-75
2023/05/24 01:34:28;;;;;;;19.00;3.33;;;7.60;91.50;;;;;;5014930;28;87658;-75
2023/05/24 01:36:54;;;;;;;12.55;2.70;;;7.60;91.30;;;;;;5014007;28;89007;-75
2023/05/24 01:39:21;;;;;;;17.38;2.70;;;7.60;91.10;;;;;;5014768;28;88876;-75
2023/05/24 01:41:56;;;;;;;10.98;2.78;;;7.50;91.30;;;;;;5014361;28;87558;-75
2023/05/24 01:44:37;;;;;;;11.68;2.30;;;7.50;91.10;;;;;;5014314;28;87616;-75
2023/05/24 01:47:27;;;;;;;20.67;2.97;;;7.50;91.30;;;;;;5015203;28;88023;-75
2023/05/24 01:50:13;;;;;;;10.80;2.33;;;7.40;91.50;;;;;;5014012;28;87539;-74
2023/05/24 01:52:42;;;;;;;10.55;2.92;;;7.40;91.40;;;;;;5014892;28;87516;-75
2023/05/24 01:55:09;;;;;;;12.27;2.30;;;7.30;91.30;;;;;;5014319;28;89502;-75
2023/05/24 01:57:37;;;;;;;12.73;2.15;;;7.30;91.40;;;;;;5014929;28;89755;-75
2023/05/24 02:00:04;;;;;;;11.02;2.55;;;7.30;91.80;;;;;;5014948;28;87385;-75
2023/05/24 02:02:29;;;;;;;14.13;3.20;;;7.30;92.00;;;;;;5013806;28;87270;-75
2023/05/24 02:04:55;;;;;;;14.25;3.05;;;7.20;92.10;;;;;;5015199;28;89189;-75
2023/05/24 02:07:21;;;;;;;11.77;2.95;;;7.20;92.00;;;;;;5014295;28;88725;-75
2023/05/24 02:09:47;;;;;;;9.20;1.95;;;7.10;92.20;;;;;;5017815;28;87599;-75
2023/05/24 02:12:12;;;;;;;11.48;2.65;;;7.10;92.20;;;;;;5018421;28;87384;-75
2023/05/24 02:14:38;;;;;;;13.88;2.83;;;7.00;92.40;;;;;;5017723;28;89250;-74
2023/05/24 02:17:04;;;;;;;15.88;4.15;;;6.90;92.40;;;;;;5015931;28;91464;-75
2023/05/24 02:19:30;;;;;;;13.15;2.33;;;6.90;92.50;;;;;;5016684;28;88722;-75
2023/05/24 02:21:56;;;;;;;11.38;2.75;;;6.80;92.80;;;;;;5018313;28;87268;-75
2023/05/24 02:24:21;;;;;;;7.70;2.50;;;6.80;92.80;;;;;;5018238;28;88563;-75
2023/05/24 02:26:47;;;;;;;14.25;3.45;;;6.70;92.70;;;;;;5016289;28;90933;-75
2023/05/24 02:29:13;;;;;;;13.80;2.78;;;6.70;93.00;;;;;;5017777;28;87713;-74
2023/05/24 02:31:38;;;;;;;15.40;3.15;;;6.70;92.80;;;;;;5015923;28;90953;-75
2023/05/24 02:34:04;;;;;;;7.90;1.90;;;6.60;92.80;;;;;;5018631;28;88371;-75
2023/05/24 02:36:31;;;;;;;10.85;3.25;;;6.60;92.60;;;;;;5017616;28;88958;-75
2023/05/24 02:38:57;;;;;;;18.55;3.33;;;6.60;93.00;;;;;;5018301;28;87508;-75
2023/05/24 02:41:22;;;;;;;8.40;2.85;;;6.50;92.80;;;;;;5017030;28;87753;-75
2023/05/24 02:43:48;;;;;;;8.73;2.40;;;6.50;92.90;;;;;;5016884;28;89617;-75
2023/05/24 02:46:14;;;;;;;9.30;2.78;;;6.40;93.10;;;;;;5017076;28;89171;-74
2023/05/24 02:48:40;;;;;;;10.15;2.35;;;6.40;93.10;;;;;;5018426;28;87835;-74
2023/05/24 02:51:06;;;;;;;12.63;3.00;;;6.30;93.30;;;;;;5017273;28;87570;-75
2023/05/24 02:53:32;;;;;;;10.60;2.58;;;6.30;93.30;;;;;;5017147;28;88740;-75
2023/05/24 02:55:58;;;;;;;14.20;3.00;;;6.30;93.60;;;;;;5016349;28;88384;-75
2023/05/24 02:58:24;;;;;;;13.80;3.90;;;6.30;93.90;;;;;;5016247;28;87598;-74
2023/05/24 03:00:50;;;;;;;13.10;3.22;;;6.20;93.90;;;;;;5017957;28;87181;-74
2023/05/24 03:03:15;;;;;;;14.82;3.10;;;6.20;93.70;;;;;;5017342;28;88634;-75
2023/05/24 03:05:41;;;;;;;11.98;2.70;;;6.10;93.90;;;;;;5017093;28;87152;-74
2023/05/24 03:08:07;;;;;;;9.15;2.45;;;6.10;93.70;;;;;;5016767;28;88573;-74
2023/05/24 03:10:33;;;;;;;13.38;2.92;;;6.00;93.40;;;;;;5016976;28;87681;-74
2023/05/24 03:12:59;;;;;;;9.95;2.10;;;6.00;93.50;;;;;;5018006;28;88937;-74
2023/05/24 03:15:24;;;;;;;10.40;2.53;;;6.00;93.60;;;;;;5016425;28;87981;-75
2023/05/24 03:17:50;;;;;;;12.93;2.88;;;6.00;93.60;;;;;;5015882;28;87784;-75
2023/05/24 03:20:16;;;;;;;14.13;3.05;;;5.90;94.10;;;;;;5015325;28;90615;-74
2023/05/24 03:22:42;;;;;;;17.58;4.43;;;5.90;93.90;;;;;;5016383;28;89016;-75
2023/05/24 03:25:08;;;;;;;17.38;3.33;;;5.90;94.10;;;;;;5016584;28;88314;-75
2023/05/24 03:27:37;;;;;;;13.82;2.67;;;5.90;93.80;;;;;;5017674;28;87495;-74
2023/05/24 03:30:05;;;;;;;7.35;2.67;;;5.80;94.10;;;;;;5015356;28;90349;-75
2023/05/24 03:32:31;;;;;;;11.95;2.58;;;5.80;93.80;;;;;;5016807;28;89923;-75
2023/05/24 03:34:59;;;;;;;10.27;2.95;;;5.70;94.70;;;;;;5016879;28;89243;-75
2023/05/24 03:37:25;;;;;;;8.73;2.47;;;5.70;94.60;;;;;;5015373;28;87672;-75
2023/05/24 03:39:50;;;;;;;15.07;2.60;;;5.70;94.00;;;;;;5017906;28;88008;-74
2023/05/24 03:42:16;;;;;;;10.15;3.00;;;5.70;93.70;;;;;;5014630;28;90567;-75
2023/05/24 03:44:42;;;;;;;10.15;2.08;;;5.70;93.60;;;;;;5016079;28;88081;-74
2023/05/24 03:47:08;;;;;;;16.15;3.67;;;5.70;93.30;;;;;;5016566;28;87664;-75
2023/05/24 03:49:34;;;;;;;9.80;3.45;;;5.70;94.00;;;;;;5016593;28;87078;-75
2023/05/24 03:52:00;;;;;;;8.43;3.00;;;5.60;93.90;;;;;;5017604;28;88540;-75
2023/05/24 03:54:25;;;;;;;11.38;4.00;;;5.60;94.10;;;;;;5016682;28;87528;-75
2023/05/24 03:56:52;;;;;;;14.20;2.90;;;5.60;94.20;;;;;;5016356;28;88809;-74
2023/05/24 03:59:18;;;;;;;9.35;2.95;;;5.50;94.20;;;;;;5016436;28;87589;-74
2023/05/24 04:01:43;;;;;;;17.75;3.63;;;5.50;94.20;;;;;;5016172;28;88845;-74
2023/05/24 04:04:09;;;;;;;9.65;3.05;;;5.50;94.60;;;;;;5016411;28;88121;-74
2023/05/24 04:06:35;;;;;;;15.18;4.47;;;5.50;94.80;;;;;;5017262;28;87614;-75
2023/05/24 04:09:03;;;;;;;11.40;2.95;;;5.50;94.80;;;;;;5014671;28;90415;-74
2023/05/24 04:11:29;;;;;;;13.20;3.10;;;5.50;94.90;;;;;;5014727;28;89849;-75
2023/05/24 04:13:59;;;;;;;11.30;3.35;;;5.50;94.80;;;;;;5016250;28;88280;-74
2023/05/24 04:16:26;;;;;;;14.95;4.93;;;5.50;94.90;;;;;;5015569;28;87940;-75
2023/05/24 04:18:52;;;;;;;13.25;3.15;;;5.50;94.90;;;;;;5016727;28;87663;-75
2023/05/24 04:21:18;;;;;;;14.10;3.63;;;5.60;94.90;;;;;;5015517;28;88612;-75
2023/05/24 04:23:44;;;;;;;16.63;3.47;;;5.60;95.50;;;;;;5015073;28;89274;-74
2023/05/24 04:26:11;;;;;;;13.80;4.40;;;5.60;95.40;;;;;;5016581;28;87693;-74
2023/05/24 04:28:40;;;;;;;12.57;4.45;;;5.70;95.50;;;;;;5016576;28;88040;-75
2023/05/24 04:31:06;;;;;;;12.30;3.53;;;5.70;95.60;;;;;;5015249;28;88676;-74
2023/05/24 04:33:33;;;;;;;10.30;3.15;;;5.80;95.50;;;;;;5016170;28;88872;-75
2023/05/24 04:36:01;;;;;;;15.70;4.07;;;5.80;95.20;;;;;;5014634;28;87673;-74
2023/05/24 04:38:28;;;;;;;11.55;3.50;;;5.80;95.00;;;;;;5016225;28;87398;-75
2023/05/24 04:41:00;;;;;;;10.98;3.15;;;5.90;94.70;;;;;;5015091;28;88267;-74
2023/05/24 04:43:26;;;;;;;13.07;3.97;;;6.00;94.40;;;;;;5015567;28;88019;-74
2023/05/24 04:45:56;;;;;;;26.70;4.28;;;6.00;94.70;;;;;;5015571;28;88672;-75
2023/05/24 04:48:23;;;;;;;16.02;5.40;;;6.10;95.00;;;;;;5015259;28;87653;-75
2023/05/24 04:50:55;;;;;;;16.65;4.93;;;6.10;95.00;;;;;;5015270;28;88645;-74
2023/05/24 04:53:22;;;;;;;26.83;5.70;;;6.20;95.00;;;;;;5013200;28;91425;-74
2023/05/24 04:55:48;;;;;;;21.55;6.53;;;6.30;95.00;;;;;;5001694;28;87665;-75
2023/05/24 04:58:14;;;;;;;24.25;7.35;;;6.40;95.00;;;;;;5009451;28;87967;-75
2023/05/24 05:00:42;;;;;;;28.95;7.35;;;6.50;95.10;;;;;;5015527;28;89471;-75
2023/05/24 05:03:08;;;;;;;24.83;7.78;;;6.60;95.10;;;;;;5015790;28;88281;-75
2023/05/24 05:05:34;;;;;;;31.40;8.20;;;6.60;95.10;;;;;;5015885;28;87186;-75
2023/05/24 05:08:00;;;;;;;21.73;7.30;;;6.70;95.10;;;;;;5013208;28;95137;-75
2023/05/24 05:10:26;;;;;;;27.67;10.60;;;6.80;95.00;;;;;;5013649;28;92722;-75
2023/05/24 05:12:52;;;;;;;22.23;7.00;;;6.90;94.80;;;;;;5015654;28;89110;-77
2023/05/24 05:15:21;;;;;;;26.48;8.00;;;7.00;94.70;;;;;;5012967;28;87822;-75
2023/05/24 05:17:46;;;;;;;27.42;7.68;;;7.10;94.70;;;;;;5013659;28;91119;-75
2023/05/24 05:20:12;;;;;;;20.42;7.53;;;7.20;94.80;;;;;;5015133;28;88272;-74
2023/05/24 05:22:38;;;;;;;30.38;8.50;;;7.30;94.70;;;;;;5014272;28;88733;-75
2023/05/24 05:25:03;;;;;;;27.85;8.70;;;7.40;94.90;;;;;;5014897;28;87726;-74
2023/05/24 05:27:29;;;;;;;28.77;8.27;;;7.50;94.70;;;;;;5015231;28;87216;-78
2023/05/24 05:29:55;;;;;;;24.38;8.60;;;7.60;94.70;;;;;;5015538;28;89253;-78
2023/05/24 05:32:21;;;;;;;28.92;9.25;;;7.70;94.60;;;;;;5015297;28;88918;-78
2023/05/24 05:34:46;;;;;;;36.53;9.50;;;7.80;94.30;;;;;;5012736;28;88892;-78
2023/05/24 05:37:12;;;;;;;34.83;9.38;;;7.90;94.40;;;;;;5014782;28;89711;-77
2023/05/24 05:39:37;;;;;;;19.50;7.72;;;8.00;94.40;;;;;;5020458;28;87432;-78
2023/05/24 05:42:03;;;;;;;27.27;8.57;;;8.10;94.20;;;;;;5012061;28;91493;-79
2023/05/24 05:44:29;;;;;;;28.40;7.53;;;8.30;94.00;;;;;;5015727;28;87582;-79
2023/05/24 05:46:58;;;;;;;37.50;8.18;;;8.30;93.30;;;;;;5015596;28;90397;-78
2023/05/24 05:49:24;;;;;;;20.92;6.95;;;8.40;93.30;;;;;;5017460;28;90501;-78
2023/05/24 05:51:51;;;;;;;30.58;7.60;;;8.50;93.20;;;;;;5018466;28;91666;-79
2023/05/24 05:54:17;;;;;;;27.00;7.38;;;8.60;93.40;;;;;;5016695;28;87962;-79
2023/05/24 05:56:45;;;;;;;21.13;6.88;;;8.80;92.90;;;;;;5015726;28;89967;-78
2023/05/24 05:59:11;;;;;;;21.90;7.00;;;8.90;93.00;;;;;;5023324;28;92845;-79
2023/05/24 06:01:38;;;;;;;29.52;6.97;;;9.00;92.90;;;;;;5018530;28;89500;-80
2023/05/24 06:04:04;;;;;;;20.58;5.93;;;9.10;92.90;;;;;;5019639;28;87284;-79
2023/05/24 06:06:30;;;;;;;21.85;6.82;;;9.20;93.10;;;;;;5016212;28;89533;-79
2023/05/24 06:08:56;;;;;;;23.40;7.85;;;9.40;92.90;;;;;;5018704;28;88883;-79
2023/05/24 06:11:22;;;;;;;22.45;6.07;;;9.50;93.20;;;;;;5017254;28;89318;-79
2023/05/24 06:13:48;;;;;;;26.80;6.38;;;9.70;92.80;;;;;;5016527;28;87417;-79
2023/05/24 06:16:14;;;;;;;21.95;6.15;;;9.80;91.40;;;;;;5015775;28;87567;-78
2023/05/24 06:18:41;;;;;;;22.52;5.68;;;9.90;91.20;;;;;;5019103;28;88284;-79
2023/05/24 06:21:19;;;;;;;20.50;6.00;;;10.00;91.60;;;;;;5017653;28;88407;-79
2023/05/24 06:23:45;;;;;;;21.98;5.70;;;10.10;91.10;;;;;;5020191;28;89093;-79
2023/05/24 06:26:10;;;;;;;16.90;4.93;;;10.30;90.80;;;;;;5018438;28;87805;-80
2023/05/24 06:28:36;;;;;;;25.00;5.05;;;10.40;90.60;;;;;;5018080;28;88991;-79
2023/05/24 06:31:03;;;;;;;23.10;5.50;;;10.60;90.40;;;;;;5018620;28;88299;-79
2023/05/24 06:33:30;;;;;;;23.23;5.28;;;10.60;90.00;;;;;;5017161;28;87912;-77
2023/05/24 06:35:56;;;;;;;28.13;5.13;;;10.80;90.30;;;;;;5017419;28;88021;-78
2023/05/24 06:38:21;;;;;;;20.75;5.32;;;11.00;88.50;;;;;;5016190;28;91998;-78
2023/05/24 06:40:47;;;;;;;21.45;4.72;;;11.00;86.60;;;;;;5016006;28;91575;-78
2023/05/24 06:43:13;;;;;;;20.67;5.20;;;11.10;85.50;;;;;;5019087;28;88061;-80
2023/05/24 06:45:38;;;;;;;19.50;4.78;;;11.20;87.80;;;;;;5017107;28;89898;-80
2023/05/24 06:48:04;;;;;;;16.00;4.13;;;11.30;86.60;;;;;;5017526;28;88445;-80
2023/05/24 06:50:30;;;;;;;25.30;5.10;;;11.50;84.80;;;;;;5017845;28;89164;-80
2023/05/24 06:52:56;;;;;;;18.23;2.97;;;11.60;84.70;;;;;;5017579;28;87680;-80
2023/05/24 06:55:22;;;;;;;15.68;3.08;;;11.70;82.40;;;;;;5015071;28;89183;-80
2023/05/24 06:57:47;;;;;;;19.40;2.90;;;11.80;81.90;;;;;;5017691;28;88305;-80
2023/05/24 07:02:41;;;;;;;17.92;4.07;;;12.00;82.00;;;;;;4984700;27;87683;-80
2023/05/24 07:05:10;;;;;;;15.90;3.42;;;12.00;81.30;;;;;;5016593;28;88014;-81
2023/05/24 07:07:38;;;;;;;14.18;4.05;;;12.20;81.90;;;;;;4994844;28;89187;-81
2023/05/24 07:10:09;;;;;;;18.33;4.03;;;12.30;81.80;;;;;;4993404;28;90224;-81
2023/05/24 07:12:36;;;;;;;17.02;4.05;;;12.60;80.10;;;;;;4996489;28;88052;-81
2023/05/24 07:15:03;;;;;;;14.73;4.05;;;12.80;78.80;;;;;;4986367;28;88936;-81
2023/05/24 07:17:31;;;;;;;19.88;3.80;;;12.80;80.60;;;;;;4993242;28;90032;-81
2023/05/24 07:19:57;;;;;;;19.13;3.80;;;12.90;81.40;;;;;;4993574;28;90175;-81
2023/05/24 07:22:27;;;;;;;19.52;3.50;;;13.20;80.00;;;;;;4979496;28;87006;-81
2023/05/24 07:24:53;;;;;;;15.27;3.88;;;13.30;78.50;;;;;;4981017;28;91238;-81
2023/05/24 07:27:19;;;;;;;20.35;3.75;;;13.40;78.60;;;;;;5001418;28;88034;-81
2023/05/24 07:29:45;;;;;;;21.25;4.35;;;13.60;77.10;;;;;;5002071;28;86713;-81
2023/05/24 07:32:14;;;;;;;20.65;3.90;;;13.70;77.10;;;;;;5003335;28;87355;-81
2023/05/24 07:34:40;;;;;;;20.48;4.32;;;13.90;76.60;;;;;;4999816;28;88494;-81
2023/05/24 07:37:43;;;;;;;20.50;3.85;;;14.10;75.60;;;;;;5000111;28;91220;-82
2023/05/24 07:40:11;;;;;;;15.93;3.83;;;14.20;76.50;;;;;;4982410;28;96085;-82
2023/05/24 07:42:41;;;;;;;14.00;2.85;;;14.10;72.80;;;;;;4997128;28;86958;-82
2023/05/24 07:45:10;;;;;;;22.42;3.80;;;14.20;73.20;;;;;;4998894;28;87474;-82
2023/05/24 07:47:36;;;;;;;20.13;3.70;;;14.20;72.10;;;;;;4998825;28;89745;-82
2023/05/24 07:53:25;;;;;;;19.40;3.75;;;14.30;73.20;;;;;;5112064;22;87641;-78
2023/05/24 07:59:26;;;;;;;17.98;3.50;;;14.90;72.20;;;;;;4976101;28;87209;-78
2023/05/24 08:01:51;;;;;;;18.63;3.30;;;15.20;73.50;;;;;;4961067;28;87635;-81
2023/05/24 08:04:17;;;;;;;13.00;3.28;;;15.30;69.90;;;;;;4961390;28;88504;-79
2023/05/24 08:06:45;;;;;;;18.17;3.95;;;15.20;70.30;;;;;;4957688;28;90395;-79
2023/05/24 08:09:11;;;;;;;16.20;3.83;;;15.20;70.00;;;;;;4959939;28;91797;-80
2023/05/24 08:11:36;;;;;;;12.90;3.10;;;15.10;70.20;;;;;;4959887;28;87829;-80
2023/05/24 08:14:02;;;;;;;14.10;2.83;;;15.30;70.60;;;;;;4956805;28;87589;-80
2023/05/24 08:16:28;;;;;;;12.07;2.47;;;15.30;67.80;;;;;;4956615;28;89917;-80
2023/05/24 08:18:53;;;;;;;15.23;3.60;;;15.10;66.10;;;;;;4957836;28;90753;-79
2023/05/24 08:21:20;;;;;;;11.00;3.15;;;15.10;68.00;;;;;;4957972;28;89206;-80
2023/05/24 08:23:46;;;;;;;12.98;3.72;;;15.00;66.60;;;;;;4958184;28;88418;-80
2023/05/24 08:26:11;;;;;;;12.45;3.17;;;15.40;67.00;;;;;;4955859;28;90819;-80
2023/05/24 08:28:37;;;;;;;12.88;3.25;;;15.70;65.70;;;;;;4957118;28;89193;-80
2023/05/24 08:31:03;;;;;;;13.98;2.95;;;16.00;65.70;;;;;;4958033;28;88886;-81
2023/05/24 08:33:28;;;;;;;12.52;2.47;;;16.20;64.30;;;;;;4955151;28;88090;-79
2023/05/24 08:35:54;;;;;;;12.80;2.72;;;16.40;62.60;;;;;;4955291;28;89467;-81
2023/05/24 08:38:20;;;;;;;8.55;2.72;;;16.70;65.00;;;;;;4954149;28;91072;-78
2023/05/24 08:40:47;;;;;;;14.43;3.03;;;17.10;63.00;;;;;;4955403;28;91400;-78
2023/05/24 08:43:14;;;;;;;13.23;2.70;;;17.40;59.50;;;;;;4956441;28;87840;-78
2023/05/24 08:45:40;;;;;;;10.55;2.88;;;17.50;59.00;;;;;;4955692;28;90831;-78
2023/05/24 08:48:07;;;;;;;14.32;3.45;;;17.40;60.10;;;;;;4955081;28;88169;-78
2023/05/24 08:50:33;;;;;;;14.38;3.53;;;17.50;59.50;;;;;;4953903;28;90669;-80
2023/05/24 08:53:05;;;;;;;16.05;3.20;;;17.60;57.70;;;;;;4953590;28;88616;-80
2023/05/24 08:55:31;;;;;;;18.10;2.72;;;17.50;58.00;;;;;;4954905;28;88779;-78
2023/05/24 08:58:00;;;;;;;13.98;3.28;;;17.50;60.60;;;;;;4956955;28;88005;-82
2023/05/24 09:00:26;;;;;;;10.10;2.75;;;17.70;58.50;;;;;;4954723;28;91731;-80
2023/05/24 09:02:52;;;;;;;15.98;3.35;;;17.50;55.70;;;;;;4954751;28;87741;-81
2023/05/24 09:05:20;;;;;;;16.60;4.00;;;17.40;57.20;;;;;;4955617;28;88097;-80
2023/05/24 09:07:48;;;;;;;14.13;4.00;;;17.40;56.80;;;;;;4954746;28;89759;-79
2023/05/24 09:10:14;;;;;;;20.02;3.70;;;17.60;58.30;;;;;;4955332;28;88421;-79
2023/05/24 09:12:44;;;;;;;16.30;3.67;;;17.90;57.70;;;;;;4956442;28;87520;-80
2023/05/24 09:15:10;;;;;;;17.48;4.07;;;18.00;57.90;;;;;;4954338;28;89112;-83
2023/05/24 09:17:37;;;;;;;13.57;3.63;;;18.00;58.60;;;;;;4954127;28;91782;-83
2023/05/24 09:20:08;;;;;;;13.82;3.88;;;18.10;55.60;;;;;;4953020;28;90808;-83
2023/05/24 09:22:36;;;;;;;12.05;3.20;;;18.10;56.90;;;;;;4954290;28;87483;-78
2023/05/24 09:25:03;;;;;;;12.63;3.55;;;18.40;57.50;;;;;;4954333;28;90344;-77
2023/05/24 09:27:31;;;;;;;13.43;3.60;;;18.90;56.40;;;;;;4955137;28;88390;-77
2023/05/24 09:29:57;;;;;;;10.93;3.80;;;19.20;57.20;;;;;;4955138;28;87582;-78
2023/05/24 09:32:23;;;;;;;12.95;3.50;;;19.20;52.30;;;;;;4955755;28;87396;-77
2023/05/24 09:34:54;;;;;;;12.15;3.58;;;18.90;55.40;;;;;;4953594;28;90660;-77
2023/05/24 09:37:23;;;;;;;12.95;3.50;;;18.50;54.50;;;;;;4955150;28;88537;-78
2023/05/24 09:39:50;;;;;;;15.60;4.07;;;18.40;55.50;;;;;;4954244;28;91695;-77
2023/05/24 09:42:25;;;;;;;14.07;4.20;;;18.40;55.40;;;;;;4946690;28;88849;-78
2023/05/24 09:45:03;;;;;;;11.43;3.55;;;18.70;55.30;;;;;;4955614;28;87740;-78
2023/05/24 09:47:33;;;;;;;12.20;3.60;;;19.10;55.10;;;;;;4953868;28;88850;-78
2023/05/24 09:50:02;;;;;;;14.48;3.17;;;19.60;54.30;;;;;;4954454;28;88218;-77
2023/05/24 09:52:28;;;;;;;13.90;3.45;;;20.00;55.20;;;;;;4955865;28;87643;-77
2023/05/24 09:54:54;;;;;;;17.42;3.35;;;20.50;54.40;;;;;;4956246;28;87621;-77
2023/05/24 09:57:22;;;;;;;15.55;4.10;;;20.70;53.80;;;;;;4953618;28;91514;-77
2023/05/24 09:59:51;;;;;;;12.93;4.00;;;20.70;51.70;;;;;;4954267;28;89994;-77
2023/05/24 10:02:20;;;;;;;15.98;4.82;;;20.80;52.40;;;;;;4955241;28;87824;-77
2023/05/24 10:04:46;;;;;;;10.10;3.78;;;20.70;50.30;;;;;;4953451;28;87871;-77
2023/05/24 10:07:12;;;;;;;15.10;4.10;;;20.50;47.80;;;;;;4953136;28;92688;-80
2023/05/24 10:09:41;;;;;;;10.57;3.53;;;20.10;49.50;;;;;;4955718;28;89580;-80
2023/05/24 10:12:07;;;;;;;14.80;3.60;;;19.90;49.10;;;;;;4954971;28;87530;-79
2023/05/24 10:14:37;;;;;;;11.35;3.33;;;20.00;49.40;;;;;;4954666;28;88109;-79
2023/05/24 10:17:06;;;;;;;14.73;3.60;;;19.90;51.30;;;;;;4953833;28;90275;-85
2023/05/24 10:19:32;;;;;;;20.08;4.22;;;20.10;52.50;;;;;;4954754;28;91912;-84
2023/05/24 10:22:00;;;;;;;9.57;3.45;;;20.80;52.60;;;;;;4955150;28;87543;-82
2023/05/24 10:24:34;;;;;;;13.95;3.50;;;21.20;48.40;;;;;;4954146;28;90966;-85
2023/05/24 10:27:08;;;;;;;14.15;3.33;;;21.10;48.00;;;;;;4953016;28;91889;-76
2023/05/24 10:29:40;;;;;;;12.57;3.08;;;20.80;51.20;;;;;;4953623;28;90570;-77
2023/05/24 10:32:07;;;;;;;12.82;3.42;;;20.70;50.60;;;;;;4957630;28;88687;-79
2023/05/24 10:34:35;;;;;;;13.73;4.10;;;21.10;51.50;;;;;;4956137;28;90699;-79
2023/05/24 10:37:01;;;;;;;15.15;3.45;;;21.40;48.00;;;;;;4957648;28;91517;-77
2023/05/24 10:39:28;;;;;;;7.82;2.72;;;21.10;49.60;;;;;;4957538;28;88135;-76
2023/05/24 10:42:05;;;;;;;12.27;4.15;;;21.10;51.50;;;;;;4953922;28;87694;-78
2023/05/24 10:44:31;;;;;;;10.43;3.13;;;21.10;49.50;;;;;;4958391;28;87596;-78
2023/05/24 10:47:10;;;;;;;9.57;3.22;;;21.00;51.40;;;;;;4956196;28;91747;-78
2023/05/24 10:49:38;;;;;;;10.98;3.25;;;21.10;50.60;;;;;;4956092;28;91171;-77
2023/05/24 10:52:12;;;;;;;14.02;3.20;;;21.10;49.40;;;;;;4959089;28;88068;-77
2023/05/24 10:54:38;;;;;;;12.18;3.25;;;21.10;50.60;;;;;;4957892;28;91819;-77
2023/05/24 10:57:05;;;;;;;11.80;3.30;;;21.40;50.70;;;;;;4955199;28;92962;-77
2023/05/24 10:59:38;;;;;;;12.98;3.33;;;21.70;51.00;;;;;;4957950;28;89017;-78
2023/05/24 11:02:11;;;;;;;12.70;3.70;;;22.50;50.10;;;;;;4957765;28;87463;-77
2023/05/24 11:04:38;;;;;;;;;;;23.30;50.30;;;;;;4973374;28;87941;-77
2023/05/24 11:07:08;;;;;;;11.80;3.15;;;23.30;47.70;;;;;;4959316;28;88612;-77
2023/05/24 11:09:35;;;;;;;14.32;2.92;;;23.10;47.60;;;;;;4957440;28;93495;-78
2023/05/24 11:12:06;;;;;;;13.50;3.10;;;22.90;47.60;;;;;;4956986;28;88148;-79
2023/05/24 11:14:35;;;;;;;14.15;3.20;;;22.30;45.80;;;;;;4957136;28;87953;-78
2023/05/24 11:17:01;;;;;;;11.00;3.45;;;21.80;47.40;;;;;;4956417;28;91832;-78
2023/05/24 11:19:33;;;;;;;13.10;3.53;;;21.70;48.00;;;;;;4957761;28;89353;-78
2023/05/24 11:22:00;;;;;;;11.05;3.65;;;21.40;48.70;;;;;;4956510;28;88240;-79
2023/05/24 11:24:26;;;;;;;16.50;2.97;;;21.40;48.00;;;;;;4955472;28;90894;-79
2023/05/24 11:26:52;;;;;;;15.48;4.25;;;21.40;50.50;;;;;;4955441;28;90325;-76
2023/05/24 11:29:21;;;;;;;14.63;3.75;;;21.20;49.00;;;;;;4956490;28;87836;-77
2023/05/24 11:31:51;;;;;;;11.55;2.78;;;21.00;47.80;;;;;;4957275;28;87685;-76
2023/05/24 11:34:20;;;;;;;16.33;3.90;;;20.70;51.10;;;;;;4957132;28;87955;-78
2023/05/24 11:36:46;;;;;;;22.58;3.65;;;20.70;50.80;;;;;;4956433;28;91687;-77
2023/05/24 11:39:13;;;;;;;14.30;3.70;;;20.70;52.00;;;;;;4955627;28;91913;-77
2023/05/24 11:41:39;;;;;;;13.63;3.75;;;20.30;49.30;;;;;;4956303;28;87564;-78
2023/05/24 11:44:07;;;;;;;18.67;4.22;;;20.00;50.70;;;;;;4956157;28;91082;-77
2023/05/24 11:46:33;;;;;;;12.68;3.80;;;19.60;50.20;;;;;;4954652;28;91628;-78
2023/05/24 11:48:59;;;;;;;10.07;3.38;;;19.50;52.10;;;;;;4956367;28;92173;-77
2023/05/24 11:51:36;;;;;;;16.65;4.57;;;20.00;51.50;;;;;;4970226;28;88086;-79
2023/05/24 11:54:01;;;;;;;15.85;3.72;;;20.50;49.20;;;;;;4954564;28;90338;-77
2023/05/24 11:56:31;;;;;;;13.10;3.75;;;20.50;51.20;;;;;;4954966;28;90914;-77
2023/05/24 11:59:09;;;;;;;12.02;3.70;;;20.60;49.90;;;;;;4956359;28;88076;-82
2023/05/24 12:01:36;;;;;;;10.50;3.15;;;20.70;50.40;;;;;;4954820;28;94026;-76
2023/05/24 12:04:05;;;;;;;13.43;3.40;;;21.00;52.10;;;;;;4971722;28;88773;-77
2023/05/24 12:06:35;;;;;;;10.75;3.80;;;21.80;50.40;;;;;;4956870;28;93069;-77
2023/05/24 12:09:04;;;;;;;11.70;3.58;;;21.80;45.70;;;;;;4955379;28;89926;-79
2023/05/24 12:11:30;;;;;;;9.88;3.38;;;21.70;51.30;;;;;;4956572;28;87990;-77
2023/05/24 12:13:57;;;;;;;34.30;4.85;;;21.90;46.90;;;;;;4954829;28;89644;-88
2023/05/24 12:16:25;;;;;;;9.13;3.70;;;21.80;48.60;;;;;;4953354;28;90553;-77
2023/05/24 12:18:51;;;;;;;11.07;3.83;;;21.30;45.60;;;;;;4955982;28;90624;-76
2023/05/24 12:21:19;;;;;;;12.02;2.90;;;21.00;50.60;;;;;;4954320;28;88397;-76
2023/05/24 12:23:46;;;;;;;9.73;3.35;;;21.10;50.20;;;;;;4954153;28;90526;-76
2023/05/24 12:26:13;;;;;;;9.43;2.58;;;21.50;49.80;;;;;;4954660;28;88676;-76
2023/05/24 12:28:39;;;;;;;8.82;3.17;;;21.80;49.10;;;;;;4955039;28;88087;-77
2023/05/24 12:31:05;;;;;;;11.50;3.50;;;21.90;48.30;;;;;;4957218;28;87566;-77
2023/05/24 12:33:32;;;;;;;12.77;3.22;;;21.70;46.70;;;;;;4955664;28;90464;-77
2023/05/24 12:35:58;;;;;;;13.20;3.10;;;21.60;51.20;;;;;;4954974;28;88617;-77
2023/05/24 12:38:24;;;;;;;12.68;3.80;;;21.60;46.30;;;;;;4955977;28;89377;-76
2023/05/24 12:40:51;;;;;;;12.88;3.20;;;21.30;50.10;;;;;;4953776;28;87532;-77
2023/05/24 12:43:19;;;;;;;9.70;3.30;;;21.30;50.00;;;;;;4954888;28;87464;-77
2023/05/24 12:45:45;;;;;;;10.15;3.28;;;21.50;50.90;;;;;;4956312;28;88592;-77
2023/05/24 12:48:11;;;;;;;12.35;3.97;;;21.60;49.80;;;;;;4953697;28;91476;-77
2023/05/24 12:50:37;;;;;;;11.95;3.20;;;21.60;51.10;;;;;;4953857;28;87777;-77
2023/05/24 12:53:02;;;;;;;7.85;3.33;;;21.50;50.30;;;;;;4955171;28;87604;-77
2023/05/24 12:55:29;;;;;;;11.40;3.33;;;21.50;50.20;;;;;;4954478;28;88268;-77